sensor_id;sensor_type;location;lat;lon;timestamp;P1;durP1;ratioP1;P2;durP2;ratioP2
6033;SDS011;3045;43.226;27.858;2022-07-23T00:01:39;5.32;;;3.67;;
6033;SDS011;3045;43.226;27.858;2022-07-23T00:04:08;6.95;;;3.85;;
6033;SDS011;3045;43.226;27.858;2022-07-23T00:06:35;7.35;;;4.05;;
6033;SDS011;3045;43.226;27.858;2022-07-23T00:09:02;6.03;;;4.25;;
6033;SDS011;3045;43.226;27.858;2022-07-23T00:11:29;6.68;;;5.53;;
6033;SDS011;3045;43.226;27.858;2022-07-23T00:13:57;7.57;;;4.93;;
6033;SDS011;3045;43.226;27.858;2022-07-23T00:16:24;9.20;;;4.68;;
6033;SDS011;3045;43.226;27.858;2022-07-23T00:18:51;5.78;;;4.53;;
6033;SDS011;3045;43.226;27.858;2022-07-23T00:21:19;11.70;;;4.82;;
6033;SDS011;3045;43.226;27.858;2022-07-23T00:23:46;19.55;;;5.18;;
6033;SDS011;3045;43.226;27.858;2022-07-23T00:26:13;7.90;;;6.20;;
6033;SDS011;3045;43.226;27.858;2022-07-23T00:28:40;9.93;;;5.85;;
6033;SDS011;3045;43.226;27.858;2022-07-23T00:31:07;13.68;;;6.00;;
6033;SDS011;3045;43.226;27.858;2022-07-23T00:33:34;9.10;;;5.63;;
6033;SDS011;3045;43.226;27.858;2022-07-23T00:36:01;17.25;;;5.80;;
6033;SDS011;3045;43.226;27.858;2022-07-23T00:38:30;14.18;;;6.20;;
6033;SDS011;3045;43.226;27.858;2022-07-23T00:40:57;10.38;;;5.80;;
6033;SDS011;3045;43.226;27.858;2022-07-23T00:43:24;10.73;;;5.17;;
6033;SDS011;3045;43.226;27.858;2022-07-23T00:45:51;19.02;;;5.30;;
6033;SDS011;3045;43.226;27.858;2022-07-23T00:48:18;9.40;;;4.90;;
6033;SDS011;3045;43.226;27.858;2022-07-23T00:50:45;9.17;;;5.63;;
6033;SDS011;3045;43.226;27.858;2022-07-23T00:53:12;12.20;;;5.43;;
6033;SDS011;3045;43.226;27.858;2022-07-23T00:55:40;6.88;;;6.28;;
6033;SDS011;3045;43.226;27.858;2022-07-23T00:58:08;10.48;;;6.05;;
6033;SDS011;3045;43.226;27.858;2022-07-23T01:00:36;14.10;;;5.30;;
6033;SDS011;3045;43.226;27.858;2022-07-23T01:03:02;18.97;;;6.23;;
6033;SDS011;3045;43.226;27.858;2022-07-23T01:05:29;11.93;;;6.22;;
6033;SDS011;3045;43.226;27.858;2022-07-23T01:07:56;15.63;;;6.85;;
6033;SDS011;3045;43.226;27.858;2022-07-23T01:10:23;17.52;;;6.07;;
6033;SDS011;3045;43.226;27.858;2022-07-23T01:13:02;8.85;;;5.32;;
6033;SDS011;3045;43.226;27.858;2022-07-23T01:15:30;21.33;;;5.97;;
6033;SDS011;3045;43.226;27.858;2022-07-23T01:17:57;11.23;;;5.35;;
6033;SDS011;3045;43.226;27.858;2022-07-23T01:20:25;16.75;;;5.68;;
6033;SDS011;3045;43.226;27.858;2022-07-23T01:22:54;11.63;;;5.53;;
6033;SDS011;3045;43.226;27.858;2022-07-23T01:25:21;10.10;;;5.30;;
6033;SDS011;3045;43.226;27.858;2022-07-23T01:27:48;16.83;;;5.35;;
6033;SDS011;3045;43.226;27.858;2022-07-23T01:30:15;11.40;;;5.20;;
6033;SDS011;3045;43.226;27.858;2022-07-23T01:32:42;7.18;;;5.07;;
6033;SDS011;3045;43.226;27.858;2022-07-23T01:35:09;10.07;;;5.37;;
6033;SDS011;3045;43.226;27.858;2022-07-23T01:37:36;10.87;;;5.37;;
6033;SDS011;3045;43.226;27.858;2022-07-23T01:40:06;11.67;;;4.57;;
6033;SDS011;3045;43.226;27.858;2022-07-23T01:42:33;5.35;;;4.68;;
6033;SDS011;3045;43.226;27.858;2022-07-23T01:45:01;10.80;;;4.65;;
6033;SDS011;3045;43.226;27.858;2022-07-23T01:47:29;9.37;;;4.70;;
6033;SDS011;3045;43.226;27.858;2022-07-23T01:49:59;8.60;;;4.83;;
6033;SDS011;3045;43.226;27.858;2022-07-23T01:52:26;7.97;;;4.78;;
6033;SDS011;3045;43.226;27.858;2022-07-23T01:54:53;10.90;;;5.37;;
6033;SDS011;3045;43.226;27.858;2022-07-23T01:57:21;10.77;;;4.78;;
6033;SDS011;3045;43.226;27.858;2022-07-23T01:59:48;11.37;;;5.07;;
6033;SDS011;3045;43.226;27.858;2022-07-23T02:02:15;11.50;;;5.17;;
6033;SDS011;3045;43.226;27.858;2022-07-23T02:04:41;9.67;;;5.00;;
6033;SDS011;3045;43.226;27.858;2022-07-23T02:07:08;8.80;;;4.77;;
6033;SDS011;3045;43.226;27.858;2022-07-23T02:09:35;12.93;;;5.23;;
6033;SDS011;3045;43.226;27.858;2022-07-23T02:12:02;16.47;;;6.30;;
6033;SDS011;3045;43.226;27.858;2022-07-23T02:14:31;12.83;;;6.33;;
6033;SDS011;3045;43.226;27.858;2022-07-23T02:16:58;19.07;;;6.33;;
6033;SDS011;3045;43.226;27.858;2022-07-23T02:19:25;9.00;;;6.33;;
6033;SDS011;3045;43.226;27.858;2022-07-23T02:21:52;15.40;;;7.63;;
6033;SDS011;3045;43.226;27.858;2022-07-23T02:24:19;12.90;;;7.90;;
6033;SDS011;3045;43.226;27.858;2022-07-23T02:26:46;13.87;;;7.17;;
6033;SDS011;3045;43.226;27.858;2022-07-23T02:29:13;25.23;;;7.35;;
6033;SDS011;3045;43.226;27.858;2022-07-23T02:31:41;10.13;;;6.20;;
6033;SDS011;3045;43.226;27.858;2022-07-23T02:34:08;11.32;;;6.82;;
6033;SDS011;3045;43.226;27.858;2022-07-23T02:36:36;17.63;;;7.70;;
6033;SDS011;3045;43.226;27.858;2022-07-23T02:39:04;20.60;;;7.40;;
6033;SDS011;3045;43.226;27.858;2022-07-23T02:41:31;31.23;;;8.80;;
6033;SDS011;3045;43.226;27.858;2022-07-23T02:43:58;24.83;;;9.77;;
6033;SDS011;3045;43.226;27.858;2022-07-23T02:46:25;26.73;;;9.03;;
6033;SDS011;3045;43.226;27.858;2022-07-23T02:48:53;28.73;;;10.13;;
6033;SDS011;3045;43.226;27.858;2022-07-23T02:51:20;39.57;;;9.90;;
6033;SDS011;3045;43.226;27.858;2022-07-23T02:53:47;38.47;;;10.97;;
6033;SDS011;3045;43.226;27.858;2022-07-23T02:56:13;40.57;;;12.13;;
6033;SDS011;3045;43.226;27.858;2022-07-23T02:58:40;26.02;;;10.13;;
6033;SDS011;3045;43.226;27.858;2022-07-23T03:01:07;34.22;;;10.15;;
6033;SDS011;3045;43.226;27.858;2022-07-23T03:03:34;22.23;;;8.95;;
6033;SDS011;3045;43.226;27.858;2022-07-23T03:06:03;22.73;;;9.93;;
6033;SDS011;3045;43.226;27.858;2022-07-23T03:08:30;34.87;;;8.93;;
6033;SDS011;3045;43.226;27.858;2022-07-23T03:10:57;27.17;;;9.23;;
6033;SDS011;3045;43.226;27.858;2022-07-23T03:13:24;30.77;;;10.43;;
6033;SDS011;3045;43.226;27.858;2022-07-23T03:15:50;30.90;;;9.50;;
6033;SDS011;3045;43.226;27.858;2022-07-23T03:18:17;17.70;;;9.40;;
6033;SDS011;3045;43.226;27.858;2022-07-23T03:20:44;20.77;;;9.20;;
6033;SDS011;3045;43.226;27.858;2022-07-23T03:23:13;22.35;;;8.75;;
6033;SDS011;3045;43.226;27.858;2022-07-23T03:25:39;19.10;;;7.37;;
6033;SDS011;3045;43.226;27.858;2022-07-23T03:28:06;16.05;;;8.20;;
6033;SDS011;3045;43.226;27.858;2022-07-23T03:30:33;11.63;;;7.68;;
6033;SDS011;3045;43.226;27.858;2022-07-23T03:33:00;24.50;;;8.55;;
6033;SDS011;3045;43.226;27.858;2022-07-23T03:35:27;20.60;;;8.57;;
6033;SDS011;3045;43.226;27.858;2022-07-23T03:37:54;31.70;;;9.38;;
6033;SDS011;3045;43.226;27.858;2022-07-23T03:40:22;29.55;;;10.00;;
6033;SDS011;3045;43.226;27.858;2022-07-23T03:42:49;25.38;;;9.80;;
6033;SDS011;3045;43.226;27.858;2022-07-23T03:45:16;15.77;;;9.82;;
6033;SDS011;3045;43.226;27.858;2022-07-23T03:47:43;28.13;;;9.50;;
6033;SDS011;3045;43.226;27.858;2022-07-23T03:50:10;25.63;;;9.90;;
6033;SDS011;3045;43.226;27.858;2022-07-23T03:52:37;34.03;;;10.77;;
6033;SDS011;3045;43.226;27.858;2022-07-23T03:55:04;25.45;;;10.20;;
6033;SDS011;3045;43.226;27.858;2022-07-23T03:57:33;25.55;;;10.57;;
6033;SDS011;3045;43.226;27.858;2022-07-23T04:00:00;31.42;;;9.93;;
6033;SDS011;3045;43.226;27.858;2022-07-23T04:02:27;29.40;;;10.10;;
6033;SDS011;3045;43.226;27.858;2022-07-23T04:04:54;23.20;;;9.40;;
6033;SDS011;3045;43.226;27.858;2022-07-23T04:07:21;23.80;;;9.20;;
6033;SDS011;3045;43.226;27.858;2022-07-23T04:09:48;21.70;;;8.80;;
6033;SDS011;3045;43.226;27.858;2022-07-23T04:12:15;24.75;;;7.90;;
6033;SDS011;3045;43.226;27.858;2022-07-23T04:14:43;20.90;;;8.30;;
6033;SDS011;3045;43.226;27.858;2022-07-23T04:17:10;23.92;;;8.60;;
6033;SDS011;3045;43.226;27.858;2022-07-23T04:19:37;30.70;;;8.00;;
6033;SDS011;3045;43.226;27.858;2022-07-23T04:22:06;26.30;;;8.98;;
6033;SDS011;3045;43.226;27.858;2022-07-23T04:24:33;30.65;;;8.52;;
6033;SDS011;3045;43.226;27.858;2022-07-23T04:27:01;22.52;;;8.27;;
6033;SDS011;3045;43.226;27.858;2022-07-23T04:29:28;19.73;;;8.02;;
6033;SDS011;3045;43.226;27.858;2022-07-23T04:31:56;15.98;;;7.15;;
6033;SDS011;3045;43.226;27.858;2022-07-23T04:34:23;23.75;;;8.32;;
6033;SDS011;3045;43.226;27.858;2022-07-23T04:36:51;20.65;;;8.18;;
6033;SDS011;3045;43.226;27.858;2022-07-23T04:39:19;17.48;;;8.05;;
6033;SDS011;3045;43.226;27.858;2022-07-23T04:41:45;29.23;;;8.60;;
6033;SDS011;3045;43.226;27.858;2022-07-23T04:44:12;11.02;;;7.47;;
6033;SDS011;3045;43.226;27.858;2022-07-23T04:46:39;12.65;;;7.47;;
6033;SDS011;3045;43.226;27.858;2022-07-23T04:49:08;25.55;;;8.20;;
6033;SDS011;3045;43.226;27.858;2022-07-23T04:51:34;17.73;;;7.75;;
6033;SDS011;3045;43.226;27.858;2022-07-23T04:54:01;9.95;;;7.57;;
6033;SDS011;3045;43.226;27.858;2022-07-23T04:56:28;15.77;;;7.80;;
6033;SDS011;3045;43.226;27.858;2022-07-23T04:58:55;17.27;;;7.72;;
6033;SDS011;3045;43.226;27.858;2022-07-23T05:01:22;17.88;;;8.52;;
6033;SDS011;3045;43.226;27.858;2022-07-23T05:03:49;18.88;;;8.50;;
6033;SDS011;3045;43.226;27.858;2022-07-23T05:06:17;13.65;;;8.63;;
6033;SDS011;3045;43.226;27.858;2022-07-23T05:08:44;13.40;;;7.50;;
6033;SDS011;3045;43.226;27.858;2022-07-23T05:11:11;16.38;;;7.43;;
6033;SDS011;3045;43.226;27.858;2022-07-23T05:13:38;16.42;;;6.10;;
6033;SDS011;3045;43.226;27.858;2022-07-23T05:16:05;23.45;;;6.47;;
6033;SDS011;3045;43.226;27.858;2022-07-23T05:18:32;20.20;;;6.55;;
6033;SDS011;3045;43.226;27.858;2022-07-23T05:20:59;18.65;;;5.55;;
6033;SDS011;3045;43.226;27.858;2022-07-23T05:23:28;20.20;;;5.43;;
6033;SDS011;3045;43.226;27.858;2022-07-23T05:25:55;32.55;;;6.20;;
6033;SDS011;3045;43.226;27.858;2022-07-23T05:28:22;32.92;;;7.07;;
6033;SDS011;3045;43.226;27.858;2022-07-23T05:30:49;29.08;;;7.32;;
6033;SDS011;3045;43.226;27.858;2022-07-23T05:33:17;18.23;;;6.60;;
6033;SDS011;3045;43.226;27.858;2022-07-23T05:35:45;17.02;;;5.70;;
6033;SDS011;3045;43.226;27.858;2022-07-23T05:38:12;17.85;;;6.05;;
6033;SDS011;3045;43.226;27.858;2022-07-23T05:40:40;21.92;;;6.57;;
6033;SDS011;3045;43.226;27.858;2022-07-23T05:43:07;20.48;;;6.53;;
6033;SDS011;3045;43.226;27.858;2022-07-23T05:45:34;16.90;;;6.18;;
6033;SDS011;3045;43.226;27.858;2022-07-23T05:48:01;20.98;;;5.53;;
6033;SDS011;3045;43.226;27.858;2022-07-23T05:50:28;11.10;;;5.30;;
6033;SDS011;3045;43.226;27.858;2022-07-23T05:52:55;8.63;;;5.60;;
6033;SDS011;3045;43.226;27.858;2022-07-23T05:55:22;14.50;;;5.30;;
6033;SDS011;3045;43.226;27.858;2022-07-23T05:57:51;9.70;;;5.40;;
6033;SDS011;3045;43.226;27.858;2022-07-23T06:00:18;18.25;;;5.82;;
6033;SDS011;3045;43.226;27.858;2022-07-23T06:02:45;20.75;;;5.80;;
6033;SDS011;3045;43.226;27.858;2022-07-23T06:05:12;15.35;;;5.97;;
6033;SDS011;3045;43.226;27.858;2022-07-23T06:07:38;10.50;;;4.70;;
6033;SDS011;3045;43.226;27.858;2022-07-23T06:10:06;17.88;;;5.85;;
6033;SDS011;3045;43.226;27.858;2022-07-23T06:12:33;13.85;;;5.00;;
6033;SDS011;3045;43.226;27.858;2022-07-23T06:15:03;9.05;;;4.47;;
6033;SDS011;3045;43.226;27.858;2022-07-23T06:17:30;8.02;;;4.57;;
6033;SDS011;3045;43.226;27.858;2022-07-23T06:19:57;7.45;;;4.20;;
6033;SDS011;3045;43.226;27.858;2022-07-23T06:22:24;12.18;;;4.45;;
6033;SDS011;3045;43.226;27.858;2022-07-23T06:24:51;11.02;;;4.78;;
6033;SDS011;3045;43.226;27.858;2022-07-23T06:27:18;11.88;;;5.10;;
6033;SDS011;3045;43.226;27.858;2022-07-23T06:29:45;8.18;;;4.90;;
6033;SDS011;3045;43.226;27.858;2022-07-23T06:32:13;8.13;;;4.35;;
6033;SDS011;3045;43.226;27.858;2022-07-23T06:34:40;11.60;;;4.85;;
6033;SDS011;3045;43.226;27.858;2022-07-23T06:37:07;8.15;;;4.68;;
6033;SDS011;3045;43.226;27.858;2022-07-23T06:39:34;9.13;;;5.18;;
6033;SDS011;3045;43.226;27.858;2022-07-23T06:42:01;5.47;;;4.93;;
6033;SDS011;3045;43.226;27.858;2022-07-23T06:44:28;7.82;;;4.72;;
6033;SDS011;3045;43.226;27.858;2022-07-23T06:46:55;8.30;;;4.07;;
6033;SDS011;3045;43.226;27.858;2022-07-23T06:49:23;10.27;;;4.88;;
6033;SDS011;3045;43.226;27.858;2022-07-23T06:51:50;6.78;;;4.85;;
6033;SDS011;3045;43.226;27.858;2022-07-23T06:54:17;11.80;;;4.70;;
6033;SDS011;3045;43.226;27.858;2022-07-23T06:56:43;6.03;;;4.15;;
6033;SDS011;3045;43.226;27.858;2022-07-23T06:59:10;9.88;;;4.47;;
6033;SDS011;3045;43.226;27.858;2022-07-23T07:01:37;13.25;;;4.68;;
6033;SDS011;3045;43.226;27.858;2022-07-23T07:04:04;7.95;;;4.53;;
6033;SDS011;3045;43.226;27.858;2022-07-23T07:06:32;7.88;;;4.00;;
6033;SDS011;3045;43.226;27.858;2022-07-23T07:08:59;4.70;;;4.15;;
6033;SDS011;3045;43.226;27.858;2022-07-23T07:11:26;8.38;;;4.57;;
6033;SDS011;3045;43.226;27.858;2022-07-23T07:13:53;14.48;;;4.13;;
6033;SDS011;3045;43.226;27.858;2022-07-23T07:16:20;7.70;;;4.53;;
6033;SDS011;3045;43.226;27.858;2022-07-23T07:18:47;6.13;;;4.20;;
6033;SDS011;3045;43.226;27.858;2022-07-23T07:21:14;17.67;;;4.97;;
6033;SDS011;3045;43.226;27.858;2022-07-23T07:23:42;9.43;;;4.55;;
6033;SDS011;3045;43.226;27.858;2022-07-23T07:26:09;13.80;;;5.55;;
6033;SDS011;3045;43.226;27.858;2022-07-23T07:28:36;5.13;;;4.15;;
6033;SDS011;3045;43.226;27.858;2022-07-23T07:31:03;10.85;;;4.40;;
6033;SDS011;3045;43.226;27.858;2022-07-23T07:33:30;16.38;;;5.18;;
6033;SDS011;3045;43.226;27.858;2022-07-23T07:35:57;12.70;;;4.90;;
6033;SDS011;3045;43.226;27.858;2022-07-23T07:38:25;14.38;;;4.60;;
6033;SDS011;3045;43.226;27.858;2022-07-23T07:40:54;13.07;;;5.30;;
6033;SDS011;3045;43.226;27.858;2022-07-23T07:43:21;16.70;;;8.45;;
6033;SDS011;3045;43.226;27.858;2022-07-23T07:45:48;9.32;;;4.40;;
6033;SDS011;3045;43.226;27.858;2022-07-23T07:48:14;10.52;;;4.50;;
6033;SDS011;3045;43.226;27.858;2022-07-23T07:50:41;8.27;;;4.38;;
6033;SDS011;3045;43.226;27.858;2022-07-23T07:53:08;4.72;;;4.20;;
6033;SDS011;3045;43.226;27.858;2022-07-23T07:55:35;5.40;;;4.35;;
6033;SDS011;3045;43.226;27.858;2022-07-23T07:58:03;4.50;;;4.10;;
6033;SDS011;3045;43.226;27.858;2022-07-23T08:00:31;5.82;;;3.90;;
6033;SDS011;3045;43.226;27.858;2022-07-23T08:02:58;4.40;;;3.97;;
6033;SDS011;3045;43.226;27.858;2022-07-23T08:05:25;5.55;;;3.38;;
6033;SDS011;3045;43.226;27.858;2022-07-23T08:07:54;3.50;;;3.35;;
6033;SDS011;3045;43.226;27.858;2022-07-23T08:10:22;3.58;;;3.22;;
6033;SDS011;3045;43.226;27.858;2022-07-23T08:12:50;3.97;;;3.67;;
6033;SDS011;3045;43.226;27.858;2022-07-23T08:15:22;5.38;;;4.28;;
6033;SDS011;3045;43.226;27.858;2022-07-23T08:17:49;6.40;;;4.22;;
6033;SDS011;3045;43.226;27.858;2022-07-23T08:20:17;5.65;;;4.00;;
6033;SDS011;3045;43.226;27.858;2022-07-23T08:22:47;3.92;;;3.35;;
6033;SDS011;3045;43.226;27.858;2022-07-23T08:25:16;7.43;;;3.67;;
6033;SDS011;3045;43.226;27.858;2022-07-23T08:27:45;5.72;;;3.53;;
6033;SDS011;3045;43.226;27.858;2022-07-23T08:30:12;3.97;;;3.65;;
6033;SDS011;3045;43.226;27.858;2022-07-23T08:32:51;5.13;;;3.63;;
6033;SDS011;3045;43.226;27.858;2022-07-23T08:35:21;3.78;;;3.33;;
6033;SDS011;3045;43.226;27.858;2022-07-23T08:37:49;3.92;;;3.05;;
6033;SDS011;3045;43.226;27.858;2022-07-23T08:40:16;5.45;;;3.45;;
6033;SDS011;3045;43.226;27.858;2022-07-23T08:42:44;5.18;;;3.83;;
6033;SDS011;3045;43.226;27.858;2022-07-23T08:45:13;3.65;;;3.40;;
6033;SDS011;3045;43.226;27.858;2022-07-23T08:47:43;3.90;;;3.58;;
6033;SDS011;3045;43.226;27.858;2022-07-23T08:50:11;4.25;;;3.58;;
6033;SDS011;3045;43.226;27.858;2022-07-23T08:52:38;5.15;;;3.90;;
6033;SDS011;3045;43.226;27.858;2022-07-23T08:55:07;3.78;;;3.53;;
6033;SDS011;3045;43.226;27.858;2022-07-23T08:57:34;4.13;;;3.75;;
6033;SDS011;3045;43.226;27.858;2022-07-23T09:00:03;3.15;;;3.05;;
6033;SDS011;3045;43.226;27.858;2022-07-23T09:02:31;3.42;;;3.22;;
6033;SDS011;3045;43.226;27.858;2022-07-23T09:05:05;3.33;;;3.03;;
6033;SDS011;3045;43.226;27.858;2022-07-23T09:07:34;3.35;;;3.15;;
6033;SDS011;3045;43.226;27.858;2022-07-23T09:10:05;3.50;;;3.30;;
6033;SDS011;3045;43.226;27.858;2022-07-23T09:12:33;3.42;;;3.00;;
6033;SDS011;3045;43.226;27.858;2022-07-23T09:15:04;3.28;;;3.15;;
6033;SDS011;3045;43.226;27.858;2022-07-23T09:17:39;3.75;;;3.45;;
6033;SDS011;3045;43.226;27.858;2022-07-23T09:20:07;4.07;;;3.88;;
6033;SDS011;3045;43.226;27.858;2022-07-23T09:22:37;3.20;;;3.10;;
6033;SDS011;3045;43.226;27.858;2022-07-23T09:25:05;3.65;;;3.17;;
6033;SDS011;3045;43.226;27.858;2022-07-23T09:27:48;4.47;;;3.60;;
6033;SDS011;3045;43.226;27.858;2022-07-23T09:30:18;4.50;;;3.63;;
6033;SDS011;3045;43.226;27.858;2022-07-23T09:35:44;4.13;;;3.83;;
6033;SDS011;3045;43.226;27.858;2022-07-23T09:38:14;3.65;;;3.35;;
6033;SDS011;3045;43.226;27.858;2022-07-23T09:40:42;3.60;;;3.35;;
6033;SDS011;3045;43.226;27.858;2022-07-23T09:43:10;4.43;;;3.70;;
6033;SDS011;3045;43.226;27.858;2022-07-23T09:45:37;3.80;;;3.50;;
6033;SDS011;3045;43.226;27.858;2022-07-23T09:48:11;4.03;;;3.67;;
6033;SDS011;3045;43.226;27.858;2022-07-23T09:50:40;4.55;;;3.60;;
6033;SDS011;3045;43.226;27.858;2022-07-23T09:53:09;5.07;;;3.60;;
6033;SDS011;3045;43.226;27.858;2022-07-23T09:55:38;3.67;;;3.47;;
6033;SDS011;3045;43.226;27.858;2022-07-23T09:58:05;7.45;;;3.53;;
6033;SDS011;3045;43.226;27.858;2022-07-23T10:00:34;4.03;;;3.85;;
6033;SDS011;3045;43.226;27.858;2022-07-23T10:03:02;3.90;;;3.60;;
6033;SDS011;3045;43.226;27.858;2022-07-23T10:05:32;3.95;;;3.75;;
6033;SDS011;3045;43.226;27.858;2022-07-23T10:08:01;3.80;;;3.50;;
6033;SDS011;3045;43.226;27.858;2022-07-23T10:10:29;5.10;;;3.47;;
6033;SDS011;3045;43.226;27.858;2022-07-23T10:12:59;3.88;;;3.63;;
6033;SDS011;3045;43.226;27.858;2022-07-23T10:15:49;4.05;;;3.42;;
6033;SDS011;3045;43.226;27.858;2022-07-23T10:18:16;3.70;;;3.60;;
6033;SDS011;3045;43.226;27.858;2022-07-23T10:20:43;4.82;;;4.10;;
6033;SDS011;3045;43.226;27.858;2022-07-23T10:23:14;7.90;;;3.67;;
6033;SDS011;3045;43.226;27.858;2022-07-23T10:25:46;4.10;;;3.80;;
6033;SDS011;3045;43.226;27.858;2022-07-23T10:31:14;4.00;;;3.80;;
6033;SDS011;3045;43.226;27.858;2022-07-23T10:33:54;5.25;;;3.83;;
6033;SDS011;3045;43.226;27.858;2022-07-23T10:36:29;4.90;;;4.13;;
6033;SDS011;3045;43.226;27.858;2022-07-23T10:39:05;4.57;;;3.67;;
6033;SDS011;3045;43.226;27.858;2022-07-23T10:41:36;3.70;;;3.50;;
6033;SDS011;3045;43.226;27.858;2022-07-23T10:44:07;7.35;;;3.83;;
6033;SDS011;3045;43.226;27.858;2022-07-23T10:46:35;4.95;;;4.22;;
6033;SDS011;3045;43.226;27.858;2022-07-23T10:49:22;7.70;;;4.20;;
6033;SDS011;3045;43.226;27.858;2022-07-23T10:54:50;3.75;;;3.45;;
6033;SDS011;3045;43.226;27.858;2022-07-23T10:57:19;3.97;;;3.78;;
6033;SDS011;3045;43.226;27.858;2022-07-23T11:02:54;4.70;;;3.80;;
6033;SDS011;3045;43.226;27.858;2022-07-23T11:05:23;4.13;;;3.67;;
6033;SDS011;3045;43.226;27.858;2022-07-23T11:10:40;11.23;;;4.60;;
6033;SDS011;3045;43.226;27.858;2022-07-23T11:19:05;4.00;;;3.70;;
6033;SDS011;3045;43.226;27.858;2022-07-23T11:21:42;3.53;;;3.33;;
6033;SDS011;3045;43.226;27.858;2022-07-23T11:24:11;6.93;;;4.05;;
6033;SDS011;3045;43.226;27.858;2022-07-23T11:26:46;3.78;;;3.53;;
6033;SDS011;3045;43.226;27.858;2022-07-23T11:32:11;3.85;;;3.65;;
6033;SDS011;3045;43.226;27.858;2022-07-23T11:34:53;3.20;;;3.10;;
6033;SDS011;3045;43.226;27.858;2022-07-23T11:37:27;9.07;;;4.25;;
6033;SDS011;3045;43.226;27.858;2022-07-23T11:40:06;4.22;;;3.67;;
6033;SDS011;3045;43.226;27.858;2022-07-23T11:42:38;3.70;;;3.40;;
6033;SDS011;3045;43.226;27.858;2022-07-23T11:45:07;4.30;;;3.47;;
6033;SDS011;3045;43.226;27.858;2022-07-23T11:47:36;4.32;;;3.63;;
6033;SDS011;3045;43.226;27.858;2022-07-23T11:50:04;3.63;;;3.30;;
6033;SDS011;3045;43.226;27.858;2022-07-23T11:52:32;5.22;;;3.92;;
6033;SDS011;3045;43.226;27.858;2022-07-23T11:55:01;3.95;;;3.70;;
6033;SDS011;3045;43.226;27.858;2022-07-23T11:57:31;3.75;;;3.55;;
6033;SDS011;3045;43.226;27.858;2022-07-23T12:00:01;3.92;;;3.58;;
6033;SDS011;3045;43.226;27.858;2022-07-23T12:02:31;3.58;;;3.42;;
6033;SDS011;3045;43.226;27.858;2022-07-23T12:04:59;3.42;;;3.33;;
6033;SDS011;3045;43.226;27.858;2022-07-23T12:07:27;4.50;;;4.20;;
6033;SDS011;3045;43.226;27.858;2022-07-23T12:09:56;3.63;;;3.42;;
6033;SDS011;3045;43.226;27.858;2022-07-23T12:12:24;4.10;;;3.90;;
6033;SDS011;3045;43.226;27.858;2022-07-23T12:14:52;4.10;;;3.90;;
6033;SDS011;3045;43.226;27.858;2022-07-23T12:17:21;4.72;;;4.20;;
6033;SDS011;3045;43.226;27.858;2022-07-23T12:19:54;3.63;;;3.38;;
6033;SDS011;3045;43.226;27.858;2022-07-23T12:22:23;4.07;;;3.50;;
6033;SDS011;3045;43.226;27.858;2022-07-23T12:24:55;3.95;;;3.70;;
6033;SDS011;3045;43.226;27.858;2022-07-23T12:27:23;4.95;;;3.72;;
6033;SDS011;3045;43.226;27.858;2022-07-23T12:29:51;4.20;;;3.90;;
6033;SDS011;3045;43.226;27.858;2022-07-23T12:32:19;3.67;;;3.38;;
6033;SDS011;3045;43.226;27.858;2022-07-23T12:34:48;3.75;;;3.53;;
6033;SDS011;3045;43.226;27.858;2022-07-23T12:37:30;3.60;;;3.38;;
6033;SDS011;3045;43.226;27.858;2022-07-23T12:39:59;5.70;;;3.92;;
6033;SDS011;3045;43.226;27.858;2022-07-23T12:42:45;3.90;;;3.60;;
6033;SDS011;3045;43.226;27.858;2022-07-23T12:45:13;4.30;;;3.85;;
6033;SDS011;3045;43.226;27.858;2022-07-23T12:47:59;5.82;;;3.60;;
6033;SDS011;3045;43.226;27.858;2022-07-23T12:50:32;7.00;;;3.95;;
6033;SDS011;3045;43.226;27.858;2022-07-23T12:53:03;4.32;;;3.97;;
6033;SDS011;3045;43.226;27.858;2022-07-23T12:55:32;3.72;;;3.47;;
6033;SDS011;3045;43.226;27.858;2022-07-23T12:58:03;6.90;;;4.25;;
6033;SDS011;3045;43.226;27.858;2022-07-23T13:00:31;4.20;;;3.38;;
6033;SDS011;3045;43.226;27.858;2022-07-23T13:02:58;3.97;;;3.47;;
6033;SDS011;3045;43.226;27.858;2022-07-23T13:05:25;4.15;;;3.75;;
6033;SDS011;3045;43.226;27.858;2022-07-23T13:07:52;3.72;;;3.53;;
6033;SDS011;3045;43.226;27.858;2022-07-23T13:10:20;4.50;;;4.05;;
6033;SDS011;3045;43.226;27.858;2022-07-23T13:12:47;3.70;;;3.38;;
6033;SDS011;3045;43.226;27.858;2022-07-23T13:15:14;3.30;;;3.10;;
6033;SDS011;3045;43.226;27.858;2022-07-23T13:17:41;6.57;;;3.28;;
6033;SDS011;3045;43.226;27.858;2022-07-23T13:20:10;4.03;;;3.72;;
6033;SDS011;3045;43.226;27.858;2022-07-23T13:22:37;4.05;;;3.85;;
6033;SDS011;3045;43.226;27.858;2022-07-23T13:25:04;4.28;;;4.07;;
6033;SDS011;3045;43.226;27.858;2022-07-23T13:27:33;3.45;;;3.35;;
6033;SDS011;3045;43.226;27.858;2022-07-23T13:30:00;3.47;;;3.28;;
6033;SDS011;3045;43.226;27.858;2022-07-23T13:32:27;3.80;;;3.60;;
6033;SDS011;3045;43.226;27.858;2022-07-23T13:34:54;3.42;;;3.22;;
6033;SDS011;3045;43.226;27.858;2022-07-23T13:37:21;3.97;;;3.70;;
6033;SDS011;3045;43.226;27.858;2022-07-23T13:39:48;3.92;;;3.60;;
6033;SDS011;3045;43.226;27.858;2022-07-23T13:42:15;7.53;;;3.58;;
6033;SDS011;3045;43.226;27.858;2022-07-23T13:44:43;3.63;;;3.25;;
6033;SDS011;3045;43.226;27.858;2022-07-23T13:47:10;3.90;;;3.70;;
6033;SDS011;3045;43.226;27.858;2022-07-23T13:49:37;4.28;;;4.03;;
6033;SDS011;3045;43.226;27.858;2022-07-23T13:52:04;4.78;;;4.38;;
6033;SDS011;3045;43.226;27.858;2022-07-23T13:54:31;3.75;;;3.53;;
6033;SDS011;3045;43.226;27.858;2022-07-23T13:56:58;3.80;;;3.50;;
6033;SDS011;3045;43.226;27.858;2022-07-23T13:59:25;3.70;;;3.60;;
6033;SDS011;3045;43.226;27.858;2022-07-23T14:01:53;3.50;;;3.40;;
6033;SDS011;3045;43.226;27.858;2022-07-23T14:04:20;5.10;;;3.75;;
6033;SDS011;3045;43.226;27.858;2022-07-23T14:06:47;5.15;;;3.65;;
6033;SDS011;3045;43.226;27.858;2022-07-23T14:09:14;3.88;;;3.55;;
6033;SDS011;3045;43.226;27.858;2022-07-23T14:11:41;3.67;;;3.47;;
6033;SDS011;3045;43.226;27.858;2022-07-23T14:14:08;3.15;;;3.03;;
6033;SDS011;3045;43.226;27.858;2022-07-23T14:16:35;3.00;;;2.90;;
6033;SDS011;3045;43.226;27.858;2022-07-23T14:19:03;4.05;;;3.85;;
6033;SDS011;3045;43.226;27.858;2022-07-23T14:21:30;6.18;;;3.60;;
6033;SDS011;3045;43.226;27.858;2022-07-23T14:23:57;5.90;;;3.53;;
6033;SDS011;3045;43.226;27.858;2022-07-23T14:26:24;3.92;;;3.38;;
6033;SDS011;3045;43.226;27.858;2022-07-23T14:28:51;3.22;;;2.85;;
6033;SDS011;3045;43.226;27.858;2022-07-23T14:31:18;2.83;;;2.72;;
6033;SDS011;3045;43.226;27.858;2022-07-23T14:33:45;3.67;;;3.38;;
6033;SDS011;3045;43.226;27.858;2022-07-23T14:36:13;3.20;;;3.10;;
6033;SDS011;3045;43.226;27.858;2022-07-23T14:38:40;7.15;;;3.45;;
6033;SDS011;3045;43.226;27.858;2022-07-23T14:41:07;3.47;;;3.38;;
6033;SDS011;3045;43.226;27.858;2022-07-23T14:43:34;3.42;;;2.72;;
6033;SDS011;3045;43.226;27.858;2022-07-23T14:46:01;4.15;;;3.30;;
6033;SDS011;3045;43.226;27.858;2022-07-23T14:48:29;3.58;;;3.38;;
6033;SDS011;3045;43.226;27.858;2022-07-23T14:50:56;3.92;;;3.40;;
6033;SDS011;3045;43.226;27.858;2022-07-23T14:53:27;3.33;;;3.03;;
6033;SDS011;3045;43.226;27.858;2022-07-23T14:55:54;3.60;;;3.40;;
6033;SDS011;3045;43.226;27.858;2022-07-23T14:58:22;6.47;;;3.70;;
6033;SDS011;3045;43.226;27.858;2022-07-23T15:00:49;3.92;;;3.63;;
6033;SDS011;3045;43.226;27.858;2022-07-23T15:03:16;6.07;;;4.00;;
6033;SDS011;3045;43.226;27.858;2022-07-23T15:05:43;4.15;;;3.75;;
6033;SDS011;3045;43.226;27.858;2022-07-23T15:08:10;3.88;;;3.58;;
6033;SDS011;3045;43.226;27.858;2022-07-23T15:10:38;3.55;;;3.45;;
6033;SDS011;3045;43.226;27.858;2022-07-23T15:13:05;3.63;;;3.42;;
6033;SDS011;3045;43.226;27.858;2022-07-23T15:15:32;3.90;;;3.55;;
6033;SDS011;3045;43.226;27.858;2022-07-23T15:17:59;4.13;;;3.83;;
6033;SDS011;3045;43.226;27.858;2022-07-23T15:20:26;4.65;;;4.25;;
6033;SDS011;3045;43.226;27.858;2022-07-23T15:22:53;3.92;;;3.72;;
6033;SDS011;3045;43.226;27.858;2022-07-23T15:25:20;3.92;;;3.65;;